sensor_id;sensor_type;location;lat;lon;timestamp;P1;durP1;ratioP1;P2;durP2;ratioP2
11907;SDS011;6014;47.690;9.130;2023-05-07T00:01:55;4.38;;;2.60;;
11907;SDS011;6014;47.690;9.130;2023-05-07T00:04:23;6.47;;;2.67;;
11907;SDS011;6014;47.690;9.130;2023-05-07T00:06:51;5.65;;;2.97;;
11907;SDS011;6014;47.690;9.130;2023-05-07T00:09:19;6.00;;;2.90;;
11907;SDS011;6014;47.690;9.130;2023-05-07T00:11:49;3.95;;;2.38;;
11907;SDS011;6014;47.690;9.130;2023-05-07T00:14:17;4.38;;;2.25;;
11907;SDS011;6014;47.690;9.130;2023-05-07T00:16:45;6.07;;;2.63;;
11907;SDS011;6014;47.690;9.130;2023-05-07T00:19:20;4.93;;;2.53;;
11907;SDS011;6014;47.690;9.130;2023-05-07T00:21:48;5.72;;;2.65;;
11907;SDS011;6014;47.690;9.130;2023-05-07T00:24:17;4.28;;;2.60;;
11907;SDS011;6014;47.690;9.130;2023-05-07T00:26:47;4.68;;;2.85;;
11907;SDS011;6014;47.690;9.130;2023-05-07T00:29:19;4.60;;;2.50;;
11907;SDS011;6014;47.690;9.130;2023-05-07T00:34:37;7.20;;;3.17;;
11907;SDS011;6014;47.690;9.130;2023-05-07T00:37:05;9.05;;;2.80;;
11907;SDS011;6014;47.690;9.130;2023-05-07T00:39:35;5.78;;;2.83;;
11907;SDS011;6014;47.690;9.130;2023-05-07T00:42:13;4.63;;;2.53;;
11907;SDS011;6014;47.690;9.130;2023-05-07T00:44:42;3.97;;;2.17;;
11907;SDS011;6014;47.690;9.130;2023-05-07T00:47:10;4.68;;;2.65;;
11907;SDS011;6014;47.690;9.130;2023-05-07T00:49:39;4.38;;;2.47;;
11907;SDS011;6014;47.690;9.130;2023-05-07T00:52:11;6.13;;;2.70;;
11907;SDS011;6014;47.690;9.130;2023-05-07T00:54:41;5.22;;;2.83;;
11907;SDS011;6014;47.690;9.130;2023-05-07T00:57:10;4.55;;;2.53;;
11907;SDS011;6014;47.690;9.130;2023-05-07T00:59:39;4.35;;;2.50;;
11907;SDS011;6014;47.690;9.130;2023-05-07T01:02:08;4.38;;;2.50;;
11907;SDS011;6014;47.690;9.130;2023-05-07T01:04:55;4.60;;;2.20;;
11907;SDS011;6014;47.690;9.130;2023-05-07T01:07:24;5.57;;;2.65;;
11907;SDS011;6014;47.690;9.130;2023-05-07T01:09:53;4.78;;;2.70;;
11907;SDS011;6014;47.690;9.130;2023-05-07T01:12:25;4.47;;;2.38;;
11907;SDS011;6014;47.690;9.130;2023-05-07T01:14:55;5.03;;;2.58;;
11907;SDS011;6014;47.690;9.130;2023-05-07T01:17:23;4.80;;;2.47;;
11907;SDS011;6014;47.690;9.130;2023-05-07T01:19:54;4.40;;;2.80;;
11907;SDS011;6014;47.690;9.130;2023-05-07T01:25:03;5.43;;;3.40;;
11907;SDS011;6014;47.690;9.130;2023-05-07T01:27:33;5.88;;;2.67;;
11907;SDS011;6014;47.690;9.130;2023-05-07T01:30:03;4.93;;;2.88;;
11907;SDS011;6014;47.690;9.130;2023-05-07T01:32:32;5.55;;;2.75;;
11907;SDS011;6014;47.690;9.130;2023-05-07T01:35:05;4.97;;;2.60;;
11907;SDS011;6014;47.690;9.130;2023-05-07T01:37:38;4.75;;;2.95;;
11907;SDS011;6014;47.690;9.130;2023-05-07T01:40:08;6.00;;;2.80;;
11907;SDS011;6014;47.690;9.130;2023-05-07T01:42:37;3.95;;;2.42;;
11907;SDS011;6014;47.690;9.130;2023-05-07T01:45:06;4.57;;;2.83;;
11907;SDS011;6014;47.690;9.130;2023-05-07T01:47:35;4.70;;;2.70;;
11907;SDS011;6014;47.690;9.130;2023-05-07T01:50:05;5.18;;;2.60;;
11907;SDS011;6014;47.690;9.130;2023-05-07T01:52:36;5.00;;;2.90;;
11907;SDS011;6014;47.690;9.130;2023-05-07T01:55:06;4.78;;;2.85;;
11907;SDS011;6014;47.690;9.130;2023-05-07T01:57:35;6.00;;;3.03;;
11907;SDS011;6014;47.690;9.130;2023-05-07T02:00:04;5.40;;;3.03;;
11907;SDS011;6014;47.690;9.130;2023-05-07T02:02:36;5.18;;;2.70;;
11907;SDS011;6014;47.690;9.130;2023-05-07T02:05:05;4.77;;;2.73;;
11907;SDS011;6014;47.690;9.130;2023-05-07T02:07:33;4.00;;;2.23;;
11907;SDS011;6014;47.690;9.130;2023-05-07T02:10:02;4.17;;;2.50;;
11907;SDS011;6014;47.690;9.130;2023-05-07T02:12:31;5.20;;;2.93;;
11907;SDS011;6014;47.690;9.130;2023-05-07T02:14:59;4.47;;;2.45;;
11907;SDS011;6014;47.690;9.130;2023-05-07T02:17:31;5.30;;;2.97;;
11907;SDS011;6014;47.690;9.130;2023-05-07T02:19:59;6.17;;;2.87;;
11907;SDS011;6014;47.690;9.130;2023-05-07T02:22:27;4.77;;;2.87;;
11907;SDS011;6014;47.690;9.130;2023-05-07T02:27:27;5.05;;;2.72;;
11907;SDS011;6014;47.690;9.130;2023-05-07T02:29:55;5.03;;;2.63;;
11907;SDS011;6014;47.690;9.130;2023-05-07T02:32:24;5.33;;;2.50;;
11907;SDS011;6014;47.690;9.130;2023-05-07T02:34:52;5.17;;;3.00;;
11907;SDS011;6014;47.690;9.130;2023-05-07T02:37:20;4.97;;;2.80;;
11907;SDS011;6014;47.690;9.130;2023-05-07T02:39:48;4.67;;;2.60;;
11907;SDS011;6014;47.690;9.130;2023-05-07T02:42:16;4.83;;;2.77;;
11907;SDS011;6014;47.690;9.130;2023-05-07T02:44:45;8.40;;;3.20;;
11907;SDS011;6014;47.690;9.130;2023-05-07T02:47:14;4.63;;;2.67;;
11907;SDS011;6014;47.690;9.130;2023-05-07T02:49:42;6.10;;;3.07;;
11907;SDS011;6014;47.690;9.130;2023-05-07T02:52:13;4.47;;;2.33;;
11907;SDS011;6014;47.690;9.130;2023-05-07T02:54:41;5.77;;;3.20;;
11907;SDS011;6014;47.690;9.130;2023-05-07T02:57:09;6.83;;;2.97;;
11907;SDS011;6014;47.690;9.130;2023-05-07T02:59:37;5.73;;;3.07;;
11907;SDS011;6014;47.690;9.130;2023-05-07T03:02:06;5.57;;;2.73;;
11907;SDS011;6014;47.690;9.130;2023-05-07T03:04:34;7.03;;;3.00;;
11907;SDS011;6014;47.690;9.130;2023-05-07T03:07:03;9.13;;;3.40;;
11907;SDS011;6014;47.690;9.130;2023-05-07T03:09:31;5.53;;;3.10;;
11907;SDS011;6014;47.690;9.130;2023-05-07T03:12:01;7.70;;;3.57;;
11907;SDS011;6014;47.690;9.130;2023-05-07T03:14:29;7.17;;;3.60;;
11907;SDS011;6014;47.690;9.130;2023-05-07T03:16:57;4.60;;;3.40;;
11907;SDS011;6014;47.690;9.130;2023-05-07T03:19:27;5.73;;;2.87;;
11907;SDS011;6014;47.690;9.130;2023-05-07T03:21:57;5.17;;;3.30;;
11907;SDS011;6014;47.690;9.130;2023-05-07T03:24:25;6.73;;;3.43;;
11907;SDS011;6014;47.690;9.130;2023-05-07T03:26:54;5.57;;;3.27;;
11907;SDS011;6014;47.690;9.130;2023-05-07T03:29:22;8.13;;;3.73;;
11907;SDS011;6014;47.690;9.130;2023-05-07T03:31:50;4.97;;;3.10;;
11907;SDS011;6014;47.690;9.130;2023-05-07T03:34:18;7.13;;;3.70;;
11907;SDS011;6014;47.690;9.130;2023-05-07T03:36:51;7.63;;;2.77;;
11907;SDS011;6014;47.690;9.130;2023-05-07T03:39:19;5.93;;;3.40;;
11907;SDS011;6014;47.690;9.130;2023-05-07T03:41:47;5.67;;;3.40;;
11907;SDS011;6014;47.690;9.130;2023-05-07T03:44:15;6.43;;;3.37;;
11907;SDS011;6014;47.690;9.130;2023-05-07T03:46:43;5.43;;;3.27;;
11907;SDS011;6014;47.690;9.130;2023-05-07T03:49:12;6.00;;;3.30;;
11907;SDS011;6014;47.690;9.130;2023-05-07T03:51:40;5.40;;;3.30;;
11907;SDS011;6014;47.690;9.130;2023-05-07T03:54:09;4.50;;;2.77;;
11907;SDS011;6014;47.690;9.130;2023-05-07T03:56:38;5.97;;;3.23;;
11907;SDS011;6014;47.690;9.130;2023-05-07T03:59:06;7.43;;;2.97;;
11907;SDS011;6014;47.690;9.130;2023-05-07T04:01:36;6.30;;;3.77;;
11907;SDS011;6014;47.690;9.130;2023-05-07T04:04:07;8.30;;;3.33;;
11907;SDS011;6014;47.690;9.130;2023-05-07T04:06:35;8.00;;;3.60;;
11907;SDS011;6014;47.690;9.130;2023-05-07T04:09:03;6.63;;;3.20;;
11907;SDS011;6014;47.690;9.130;2023-05-07T04:11:33;5.47;;;3.63;;
11907;SDS011;6014;47.690;9.130;2023-05-07T04:14:01;6.97;;;3.60;;
11907;SDS011;6014;47.690;9.130;2023-05-07T04:16:29;5.77;;;3.43;;
11907;SDS011;6014;47.690;9.130;2023-05-07T04:18:57;6.97;;;3.57;;
11907;SDS011;6014;47.690;9.130;2023-05-07T04:21:25;6.20;;;3.27;;
11907;SDS011;6014;47.690;9.130;2023-05-07T04:23:53;7.33;;;3.43;;
11907;SDS011;6014;47.690;9.130;2023-05-07T04:26:21;6.73;;;3.73;;
11907;SDS011;6014;47.690;9.130;2023-05-07T04:28:52;5.33;;;3.03;;
11907;SDS011;6014;47.690;9.130;2023-05-07T04:31:21;8.00;;;3.93;;
11907;SDS011;6014;47.690;9.130;2023-05-07T04:33:49;5.53;;;3.47;;
11907;SDS011;6014;47.690;9.130;2023-05-07T04:36:17;5.70;;;3.70;;
11907;SDS011;6014;47.690;9.130;2023-05-07T04:38:45;5.77;;;3.37;;
11907;SDS011;6014;47.690;9.130;2023-05-07T04:41:13;5.67;;;3.40;;
11907;SDS011;6014;47.690;9.130;2023-05-07T04:43:42;4.60;;;2.97;;
11907;SDS011;6014;47.690;9.130;2023-05-07T04:46:12;5.20;;;3.40;;
11907;SDS011;6014;47.690;9.130;2023-05-07T04:48:40;8.83;;;3.17;;
11907;SDS011;6014;47.690;9.130;2023-05-07T04:51:14;6.13;;;3.40;;
11907;SDS011;6014;47.690;9.130;2023-05-07T04:53:43;5.13;;;3.30;;
11907;SDS011;6014;47.690;9.130;2023-05-07T04:56:13;5.60;;;3.60;;
11907;SDS011;6014;47.690;9.130;2023-05-07T04:58:47;5.93;;;3.23;;
11907;SDS011;6014;47.690;9.130;2023-05-07T05:01:17;7.07;;;3.67;;
11907;SDS011;6014;47.690;9.130;2023-05-07T05:03:45;5.27;;;3.23;;
11907;SDS011;6014;47.690;9.130;2023-05-07T05:06:21;4.67;;;3.10;;
11907;SDS011;6014;47.690;9.130;2023-05-07T05:08:51;5.40;;;3.27;;
11907;SDS011;6014;47.690;9.130;2023-05-07T05:11:20;4.80;;;3.10;;
11907;SDS011;6014;47.690;9.130;2023-05-07T05:13:48;5.13;;;3.05;;
11907;SDS011;6014;47.690;9.130;2023-05-07T05:16:17;5.22;;;2.95;;
11907;SDS011;6014;47.690;9.130;2023-05-07T05:18:45;5.63;;;3.60;;
11907;SDS011;6014;47.690;9.130;2023-05-07T05:21:14;7.18;;;3.35;;
11907;SDS011;6014;47.690;9.130;2023-05-07T05:23:49;7.35;;;3.45;;
11907;SDS011;6014;47.690;9.130;2023-05-07T05:26:18;5.85;;;3.45;;
11907;SDS011;6014;47.690;9.130;2023-05-07T05:28:53;5.65;;;2.97;;
11907;SDS011;6014;47.690;9.130;2023-05-07T05:31:25;5.38;;;3.15;;
11907;SDS011;6014;47.690;9.130;2023-05-07T05:33:53;5.80;;;3.53;;
11907;SDS011;6014;47.690;9.130;2023-05-07T05:36:21;4.90;;;3.05;;
11907;SDS011;6014;47.690;9.130;2023-05-07T05:38:50;6.75;;;3.20;;
11907;SDS011;6014;47.690;9.130;2023-05-07T05:41:18;5.85;;;4.13;;
11907;SDS011;6014;47.690;9.130;2023-05-07T05:43:46;5.57;;;3.47;;
11907;SDS011;6014;47.690;9.130;2023-05-07T05:46:16;6.70;;;3.90;;
11907;SDS011;6014;47.690;9.130;2023-05-07T05:48:45;6.28;;;3.83;;
11907;SDS011;6014;47.690;9.130;2023-05-07T05:51:13;6.70;;;3.70;;
11907;SDS011;6014;47.690;9.130;2023-05-07T05:53:48;5.70;;;3.47;;
11907;SDS011;6014;47.690;9.130;2023-05-07T05:56:18;5.20;;;3.50;;
11907;SDS011;6014;47.690;9.130;2023-05-07T05:58:46;6.28;;;3.60;;
11907;SDS011;6014;47.690;9.130;2023-05-07T06:01:20;6.38;;;3.63;;
11907;SDS011;6014;47.690;9.130;2023-05-07T06:03:50;7.13;;;4.38;;
11907;SDS011;6014;47.690;9.130;2023-05-07T06:06:23;6.55;;;3.70;;
11907;SDS011;6014;47.690;9.130;2023-05-07T06:08:54;7.13;;;3.55;;
11907;SDS011;6014;47.690;9.130;2023-05-07T06:11:22;8.40;;;3.80;;
11907;SDS011;6014;47.690;9.130;2023-05-07T06:13:50;7.03;;;3.67;;
11907;SDS011;6014;47.690;9.130;2023-05-07T06:16:18;5.82;;;3.78;;
11907;SDS011;6014;47.690;9.130;2023-05-07T06:18:53;7.15;;;3.75;;
11907;SDS011;6014;47.690;9.130;2023-05-07T06:21:21;4.78;;;3.28;;
11907;SDS011;6014;47.690;9.130;2023-05-07T06:23:58;6.20;;;4.05;;
11907;SDS011;6014;47.690;9.130;2023-05-07T06:26:28;6.40;;;3.83;;
11907;SDS011;6014;47.690;9.130;2023-05-07T06:28:56;7.03;;;3.70;;
11907;SDS011;6014;47.690;9.130;2023-05-07T06:31:28;7.20;;;4.15;;
11907;SDS011;6014;47.690;9.130;2023-05-07T06:34:01;8.18;;;4.25;;
11907;SDS011;6014;47.690;9.130;2023-05-07T06:36:29;5.90;;;4.18;;
11907;SDS011;6014;47.690;9.130;2023-05-07T06:38:59;6.80;;;4.57;;
11907;SDS011;6014;47.690;9.130;2023-05-07T06:41:28;6.65;;;4.03;;
11907;SDS011;6014;47.690;9.130;2023-05-07T06:43:56;5.75;;;3.63;;
11907;SDS011;6014;47.690;9.130;2023-05-07T06:46:24;5.85;;;3.80;;
11907;SDS011;6014;47.690;9.130;2023-05-07T06:48:52;7.15;;;3.80;;
11907;SDS011;6014;47.690;9.130;2023-05-07T06:51:22;7.68;;;3.88;;
11907;SDS011;6014;47.690;9.130;2023-05-07T06:53:50;7.60;;;4.18;;
11907;SDS011;6014;47.690;9.130;2023-05-07T06:56:20;6.40;;;4.20;;
11907;SDS011;6014;47.690;9.130;2023-05-07T06:58:49;7.43;;;4.05;;
11907;SDS011;6014;47.690;9.130;2023-05-07T07:01:18;6.28;;;4.05;;
11907;SDS011;6014;47.690;9.130;2023-05-07T07:03:47;7.65;;;4.63;;
11907;SDS011;6014;47.690;9.130;2023-05-07T07:06:15;8.15;;;4.70;;
11907;SDS011;6014;47.690;9.130;2023-05-07T07:08:45;7.20;;;4.40;;
11907;SDS011;6014;47.690;9.130;2023-05-07T07:11:15;7.22;;;4.65;;
11907;SDS011;6014;47.690;9.130;2023-05-07T07:13:45;5.95;;;3.55;;
11907;SDS011;6014;47.690;9.130;2023-05-07T07:16:13;6.28;;;4.00;;
11907;SDS011;6014;47.690;9.130;2023-05-07T07:21:18;6.47;;;3.92;;
11907;SDS011;6014;47.690;9.130;2023-05-07T07:23:47;8.05;;;4.15;;
11907;SDS011;6014;47.690;9.130;2023-05-07T07:26:15;7.10;;;4.00;;
11907;SDS011;6014;47.690;9.130;2023-05-07T07:28:44;6.82;;;4.05;;
11907;SDS011;6014;47.690;9.130;2023-05-07T07:31:13;6.05;;;4.07;;
11907;SDS011;6014;47.690;9.130;2023-05-07T07:33:41;6.90;;;3.92;;
11907;SDS011;6014;47.690;9.130;2023-05-07T07:36:09;7.55;;;4.57;;
11907;SDS011;6014;47.690;9.130;2023-05-07T07:38:37;7.70;;;4.53;;
11907;SDS011;6014;47.690;9.130;2023-05-07T07:41:08;7.38;;;4.05;;
11907;SDS011;6014;47.690;9.130;2023-05-07T07:43:36;5.75;;;3.75;;
11907;SDS011;6014;47.690;9.130;2023-05-07T07:46:05;7.95;;;4.25;;
11907;SDS011;6014;47.690;9.130;2023-05-07T07:48:33;7.07;;;4.00;;
11907;SDS011;6014;47.690;9.130;2023-05-07T07:51:01;8.85;;;4.15;;
11907;SDS011;6014;47.690;9.130;2023-05-07T07:53:29;7.10;;;4.60;;
11907;SDS011;6014;47.690;9.130;2023-05-07T07:56:00;6.78;;;4.03;;
11907;SDS011;6014;47.690;9.130;2023-05-07T07:58:32;6.45;;;3.83;;
11907;SDS011;6014;47.690;9.130;2023-05-07T08:01:02;7.20;;;4.30;;
11907;SDS011;6014;47.690;9.130;2023-05-07T08:03:33;7.72;;;4.07;;
11907;SDS011;6014;47.690;9.130;2023-05-07T08:06:02;7.22;;;4.57;;
11907;SDS011;6014;47.690;9.130;2023-05-07T08:08:37;6.47;;;3.97;;
11907;SDS011;6014;47.690;9.130;2023-05-07T08:11:06;6.47;;;3.60;;
11907;SDS011;6014;47.690;9.130;2023-05-07T08:13:35;8.07;;;4.15;;
11907;SDS011;6014;47.690;9.130;2023-05-07T08:16:05;6.03;;;3.50;;
11907;SDS011;6014;47.690;9.130;2023-05-07T08:18:35;5.90;;;3.17;;
11907;SDS011;6014;47.690;9.130;2023-05-07T08:21:09;7.68;;;3.95;;
11907;SDS011;6014;47.690;9.130;2023-05-07T08:23:40;5.97;;;3.60;;
11907;SDS011;6014;47.690;9.130;2023-05-07T08:26:08;9.18;;;3.50;;
11907;SDS011;6014;47.690;9.130;2023-05-07T08:28:38;6.28;;;3.55;;
11907;SDS011;6014;47.690;9.130;2023-05-07T08:31:06;6.22;;;3.42;;
11907;SDS011;6014;47.690;9.130;2023-05-07T08:33:45;6.68;;;3.90;;
11907;SDS011;6014;47.690;9.130;2023-05-07T08:36:15;7.20;;;3.30;;
11907;SDS011;6014;47.690;9.130;2023-05-07T08:38:45;5.93;;;3.78;;
11907;SDS011;6014;47.690;9.130;2023-05-07T08:41:13;6.43;;;3.67;;
11907;SDS011;6014;47.690;9.130;2023-05-07T08:43:44;6.75;;;3.60;;
11907;SDS011;6014;47.690;9.130;2023-05-07T08:46:17;5.40;;;3.45;;
11907;SDS011;6014;47.690;9.130;2023-05-07T08:48:53;6.45;;;3.03;;
11907;SDS011;6014;47.690;9.130;2023-05-07T08:51:23;6.28;;;3.45;;
11907;SDS011;6014;47.690;9.130;2023-05-07T08:53:51;5.00;;;3.10;;
11907;SDS011;6014;47.690;9.130;2023-05-07T08:56:20;5.15;;;3.50;;
11907;SDS011;6014;47.690;9.130;2023-05-07T08:58:49;5.57;;;3.33;;
11907;SDS011;6014;47.690;9.130;2023-05-07T09:01:18;6.65;;;3.28;;
11907;SDS011;6014;47.690;9.130;2023-05-07T09:03:49;5.72;;;3.70;;
11907;SDS011;6014;47.690;9.130;2023-05-07T09:06:19;5.13;;;3.35;;
11907;SDS011;6014;47.690;9.130;2023-05-07T09:08:53;7.28;;;4.25;;
11907;SDS011;6014;47.690;9.130;2023-05-07T09:11:32;4.85;;;2.42;;
11907;SDS011;6014;47.690;9.130;2023-05-07T09:14:02;5.85;;;1.98;;
11907;SDS011;6014;47.690;9.130;2023-05-07T09:16:34;3.55;;;1.52;;
11907;SDS011;6014;47.690;9.130;2023-05-07T09:19:03;6.25;;;1.70;;
11907;SDS011;6014;47.690;9.130;2023-05-07T09:21:31;3.22;;;1.70;;
11907;SDS011;6014;47.690;9.130;2023-05-07T09:23:59;3.30;;;1.77;;
11907;SDS011;6014;47.690;9.130;2023-05-07T09:26:33;3.25;;;1.70;;
11907;SDS011;6014;47.690;9.130;2023-05-07T09:29:03;4.18;;;1.60;;
11907;SDS011;6014;47.690;9.130;2023-05-07T09:31:35;4.22;;;1.90;;
11907;SDS011;6014;47.690;9.130;2023-05-07T09:34:05;2.33;;;1.25;;
11907;SDS011;6014;47.690;9.130;2023-05-07T09:36:41;4.40;;;1.63;;
11907;SDS011;6014;47.690;9.130;2023-05-07T09:39:11;3.17;;;1.65;;
11907;SDS011;6014;47.690;9.130;2023-05-07T09:41:56;2.38;;;1.48;;
11907;SDS011;6014;47.690;9.130;2023-05-07T09:44:30;4.53;;;1.63;;
11907;SDS011;6014;47.690;9.130;2023-05-07T09:46:59;3.38;;;1.88;;
11907;SDS011;6014;47.690;9.130;2023-05-07T09:49:29;2.88;;;1.80;;
11907;SDS011;6014;47.690;9.130;2023-05-07T09:54:36;4.68;;;2.03;;
11907;SDS011;6014;47.690;9.130;2023-05-07T09:57:10;3.42;;;1.98;;
11907;SDS011;6014;47.690;9.130;2023-05-07T09:59:42;5.07;;;2.05;;
11907;SDS011;6014;47.690;9.130;2023-05-07T10:02:11;6.25;;;2.10;;
11907;SDS011;6014;47.690;9.130;2023-05-07T10:04:42;3.60;;;1.95;;
11907;SDS011;6014;47.690;9.130;2023-05-07T10:07:10;3.95;;;1.85;;
11907;SDS011;6014;47.690;9.130;2023-05-07T10:09:47;5.82;;;2.22;;
11907;SDS011;6014;47.690;9.130;2023-05-07T10:12:18;4.55;;;1.90;;
11907;SDS011;6014;47.690;9.130;2023-05-07T10:14:51;5.60;;;2.33;;
11907;SDS011;6014;47.690;9.130;2023-05-07T10:17:23;5.43;;;2.22;;
11907;SDS011;6014;47.690;9.130;2023-05-07T10:20:07;3.97;;;2.33;;
11907;SDS011;6014;47.690;9.130;2023-05-07T10:22:43;3.80;;;2.00;;
11907;SDS011;6014;47.690;9.130;2023-05-07T10:25:14;3.95;;;2.10;;
11907;SDS011;6014;47.690;9.130;2023-05-07T10:27:59;4.32;;;2.05;;
11907;SDS011;6014;47.690;9.130;2023-05-07T10:30:37;5.05;;;2.30;;
11907;SDS011;6014;47.690;9.130;2023-05-07T10:33:13;3.65;;;2.00;;
11907;SDS011;6014;47.690;9.130;2023-05-07T10:35:48;4.68;;;2.20;;
11907;SDS011;6014;47.690;9.130;2023-05-07T10:38:18;3.17;;;1.85;;
11907;SDS011;6014;47.690;9.130;2023-05-07T10:40:46;4.15;;;2.10;;
11907;SDS011;6014;47.690;9.130;2023-05-07T10:43:14;4.35;;;2.17;;
11907;SDS011;6014;47.690;9.130;2023-05-07T10:45:44;4.25;;;2.03;;
11907;SDS011;6014;47.690;9.130;2023-05-07T10:51:46;5.32;;;2.47;;
11907;SDS011;6014;47.690;9.130;2023-05-07T10:54:45;3.95;;;2.03;;
11907;SDS011;6014;47.690;9.130;2023-05-07T11:00:40;4.30;;;2.30;;
11907;SDS011;6014;47.690;9.130;2023-05-07T11:03:13;3.30;;;2.00;;
11907;SDS011;6014;47.690;9.130;2023-05-07T11:05:42;4.93;;;2.22;;
11907;SDS011;6014;47.690;9.130;2023-05-07T11:08:15;4.07;;;2.22;;
11907;SDS011;6014;47.690;9.130;2023-05-07T11:10:50;3.10;;;1.85;;
11907;SDS011;6014;47.690;9.130;2023-05-07T11:13:40;5.47;;;1.92;;
11907;SDS011;6014;47.690;9.130;2023-05-07T11:16:22;5.63;;;2.05;;
11907;SDS011;6014;47.690;9.130;2023-05-07T11:19:00;2.95;;;1.98;;
11907;SDS011;6014;47.690;9.130;2023-05-07T11:21:33;3.10;;;1.65;;
11907;SDS011;6014;47.690;9.130;2023-05-07T11:24:08;3.78;;;1.95;;
11907;SDS011;6014;47.690;9.130;2023-05-07T11:26:42;3.47;;;1.90;;
11907;SDS011;6014;47.690;9.130;2023-05-07T11:31:55;3.58;;;1.95;;
11907;SDS011;6014;47.690;9.130;2023-05-07T11:34:36;5.72;;;1.95;;
11907;SDS011;6014;47.690;9.130;2023-05-07T11:37:06;5.00;;;2.17;;
11907;SDS011;6014;47.690;9.130;2023-05-07T11:39:37;5.50;;;1.92;;
11907;SDS011;6014;47.690;9.130;2023-05-07T11:44:59;4.57;;;2.10;;
11907;SDS011;6014;47.690;9.130;2023-05-07T11:47:29;4.78;;;2.47;;
11907;SDS011;6014;47.690;9.130;2023-05-07T11:50:03;6.53;;;2.42;;
11907;SDS011;6014;47.690;9.130;2023-05-07T11:52:49;5.65;;;2.20;;
11907;SDS011;6014;47.690;9.130;2023-05-07T11:55:26;5.25;;;2.20;;
11907;SDS011;6014;47.690;9.130;2023-05-07T11:57:55;6.50;;;2.45;;
11907;SDS011;6014;47.690;9.130;2023-05-07T12:00:31;4.55;;;2.30;;
11907;SDS011;6014;47.690;9.130;2023-05-07T12:03:03;3.63;;;2.05;;
11907;SDS011;6014;47.690;9.130;2023-05-07T12:05:35;4.00;;;2.10;;
11907;SDS011;6014;47.690;9.130;2023-05-07T12:08:08;3.38;;;1.90;;
11907;SDS011;6014;47.690;9.130;2023-05-07T12:10:49;4.55;;;1.80;;
11907;SDS011;6014;47.690;9.130;2023-05-07T12:13:34;5.22;;;2.22;;
11907;SDS011;6014;47.690;9.130;2023-05-07T12:16:03;3.85;;;2.17;;
11907;SDS011;6014;47.690;9.130;2023-05-07T12:18:34;2.65;;;1.85;;
11907;SDS011;6014;47.690;9.130;2023-05-07T12:21:11;6.20;;;3.05;;
11907;SDS011;6014;47.690;9.130;2023-05-07T12:26:32;5.32;;;2.42;;
11907;SDS011;6014;47.690;9.130;2023-05-07T12:29:04;3.90;;;2.20;;
11907;SDS011;6014;47.690;9.130;2023-05-07T12:31:32;4.20;;;2.40;;
11907;SDS011;6014;47.690;9.130;2023-05-07T12:34:00;8.02;;;4.18;;
11907;SDS011;6014;47.690;9.130;2023-05-07T12:36:39;4.72;;;2.00;;
11907;SDS011;6014;47.690;9.130;2023-05-07T12:39:10;4.07;;;1.98;;
11907;SDS011;6014;47.690;9.130;2023-05-07T12:41:54;5.05;;;2.55;;
11907;SDS011;6014;47.690;9.130;2023-05-07T12:44:28;5.22;;;2.25;;
11907;SDS011;6014;47.690;9.130;2023-05-07T12:46:58;6.22;;;2.08;;
11907;SDS011;6014;47.690;9.130;2023-05-07T12:49:29;3.63;;;2.10;;
11907;SDS011;6014;47.690;9.130;2023-05-07T12:52:01;4.15;;;2.15;;
11907;SDS011;6014;47.690;9.130;2023-05-07T12:54:29;6.60;;;2.72;;
11907;SDS011;6014;47.690;9.130;2023-05-07T12:57:01;5.15;;;2.22;;
11907;SDS011;6014;47.690;9.130;2023-05-07T12:59:31;4.57;;;2.58;;
11907;SDS011;6014;47.690;9.130;2023-05-07T13:02:01;6.18;;;2.45;;
11907;SDS011;6014;47.690;9.130;2023-05-07T13:04:30;4.88;;;2.50;;
11907;SDS011;6014;47.690;9.130;2023-05-07T13:06:59;4.57;;;2.40;;
11907;SDS011;6014;47.690;9.130;2023-05-07T13:09:33;4.00;;;2.33;;
11907;SDS011;6014;47.690;9.130;2023-05-07T13:12:03;4.45;;;2.35;;
11907;SDS011;6014;47.690;9.130;2023-05-07T13:14:45;4.00;;;2.17;;
11907;SDS011;6014;47.690;9.130;2023-05-07T13:17:14;3.53;;;2.22;;
11907;SDS011;6014;47.690;9.130;2023-05-07T13:19:51;4.50;;;2.20;;
11907;SDS011;6014;47.690;9.130;2023-05-07T13:22:21;4.38;;;2.05;;
11907;SDS011;6014;47.690;9.130;2023-05-07T13:24:50;4.22;;;2.20;;
11907;SDS011;6014;47.690;9.130;2023-05-07T13:27:18;5.30;;;2.53;;
11907;SDS011;6014;47.690;9.130;2023-05-07T13:29:48;3.60;;;1.90;;
11907;SDS011;6014;47.690;9.130;2023-05-07T13:32:16;2.75;;;1.58;;
11907;SDS011;6014;47.690;9.130;2023-05-07T13:34:46;4.43;;;2.00;;
11907;SDS011;6014;47.690;9.130;2023-05-07T13:37:22;4.13;;;2.22;;
11907;SDS011;6014;47.690;9.130;2023-05-07T13:40:00;5.18;;;2.40;;
11907;SDS011;6014;47.690;9.130;2023-05-07T13:42:30;4.07;;;1.83;;
11907;SDS011;6014;47.690;9.130;2023-05-07T13:44:58;4.93;;;2.03;;
11907;SDS011;6014;47.690;9.130;2023-05-07T13:47:27;4.10;;;1.98;;
11907;SDS011;6014;47.690;9.130;2023-05-07T13:50:03;4.90;;;2.50;;
11907;SDS011;6014;47.690;9.130;2023-05-07T13:52:33;3.72;;;1.90;;
11907;SDS011;6014;47.690;9.130;2023-05-07T13:55:01;4.53;;;1.92;;
11907;SDS011;6014;47.690;9.130;2023-05-07T13:57:30;5.55;;;2.13;;
11907;SDS011;6014;47.690;9.130;2023-05-07T13:59:58;3.97;;;2.00;;
11907;SDS011;6014;47.690;9.130;2023-05-07T14:02:33;4.32;;;1.90;;
11907;SDS011;6014;47.690;9.130;2023-05-07T14:05:01;3.58;;;1.80;;
11907;SDS011;6014;47.690;9.130;2023-05-07T14:07:29;3.38;;;2.00;;
11907;SDS011;6014;47.690;9.130;2023-05-07T14:09:59;4.40;;;2.08;;
11907;SDS011;6014;47.690;9.130;2023-05-07T14:12:27;4.35;;;1.77;;
11907;SDS011;6014;47.690;9.130;2023-05-07T14:14:55;3.40;;;1.70;;
11907;SDS011;6014;47.690;9.130;2023-05-07T14:17:23;3.78;;;1.60;;
11907;SDS011;6014;47.690;9.130;2023-05-07T14:19:53;3.25;;;1.70;;
11907;SDS011;6014;47.690;9.130;2023-05-07T14:22:28;3.20;;;1.55;;
11907;SDS011;6014;47.690;9.130;2023-05-07T14:27:32;3.95;;;1.80;;
11907;SDS011;6014;47.690;9.130;2023-05-07T14:30:00;3.35;;;1.90;;
11907;SDS011;6014;47.690;9.130;2023-05-07T14:32:29;3.22;;;1.58;;
11907;SDS011;6014;47.690;9.130;2023-05-07T14:34:57;3.47;;;1.70;;
11907;SDS011;6014;47.690;9.130;2023-05-07T14:37:25;3.97;;;1.60;;
11907;SDS011;6014;47.690;9.130;2023-05-07T14:39:53;3.47;;;1.70;;
11907;SDS011;6014;47.690;9.130;2023-05-07T14:42:25;4.28;;;1.60;;
11907;SDS011;6014;47.690;9.130;2023-05-07T14:44:53;2.72;;;1.75;;
11907;SDS011;6014;47.690;9.130;2023-05-07T14:47:21;3.38;;;1.70;;
11907;SDS011;6014;47.690;9.130;2023-05-07T14:49:49;4.05;;;2.00;;
11907;SDS011;6014;47.690;9.130;2023-05-07T14:52:17;3.85;;;1.35;;
11907;SDS011;6014;47.690;9.130;2023-05-07T14:54:45;3.10;;;1.58;;
11907;SDS011;6014;47.690;9.130;2023-05-07T14:57:13;2.50;;;1.48;;
11907;SDS011;6014;47.690;9.130;2023-05-07T14:59:47;1.95;;;1.20;;
11907;SDS011;6014;47.690;9.130;2023-05-07T15:02:17;3.17;;;1.40;;
11907;SDS011;6014;47.690;9.130;2023-05-07T15:04:46;3.45;;;1.55;;
11907;SDS011;6014;47.690;9.130;2023-05-07T15:07:15;5.15;;;2.10;;
11907;SDS011;6014;47.690;9.130;2023-05-07T15:09:54;2.65;;;1.40;;
11907;SDS011;6014;47.690;9.130;2023-05-07T15:12:22;2.63;;;1.48;;
11907;SDS011;6014;47.690;9.130;2023-05-07T15:14:51;1.90;;;1.15;;
11907;SDS011;6014;47.690;9.130;2023-05-07T15:17:20;2.33;;;1.40;;
11907;SDS011;6014;47.690;9.130;2023-05-07T15:19:48;3.53;;;1.70;;
11907;SDS011;6014;47.690;9.130;2023-05-07T15:22:20;1.90;;;1.25;;
11907;SDS011;6014;47.690;9.130;2023-05-07T15:24:48;2.72;;;1.52;;
11907;SDS011;6014;47.690;9.130;2023-05-07T15:27:16;3.42;;;1.73;;
11907;SDS011;6014;47.690;9.130;2023-05-07T15:29:44;3.35;;;1.83;;
11907;SDS011;6014;47.690;9.130;2023-05-07T15:32:15;3.47;;;1.83;;
11907;SDS011;6014;47.690;9.130;2023-05-07T15:34:43;2.83;;;1.67;;
11907;SDS011;6014;47.690;9.130;2023-05-07T15:37:11;4.47;;;1.90;;
11907;SDS011;6014;47.690;9.130;2023-05-07T15:39:39;3.35;;;1.73;;
11907;SDS011;6014;47.690;9.130;2023-05-07T15:42:07;2.80;;;1.58;;
11907;SDS011;6014;47.690;9.130;2023-05-07T15:44:35;3.38;;;1.95;;
11907;SDS011;6014;47.690;9.130;2023-05-07T15:47:03;2.05;;;1.30;;
11907;SDS011;6014;47.690;9.130;2023-05-07T15:52:04;2.17;;;1.30;;
11907;SDS011;6014;47.690;9.130;2023-05-07T15:54:32;2.10;;;1.30;;